Time;durP1;ratioP1;P1;durP2;ratioP2;P2;SDS_P1;SDS_P2;PMS_P1;PMS_P2;Temp;Humidity;BMP_temperature;BMP_pressure;BME280_temperature;BME280_humidity;BME280_pressure;Samples;Min_cycle;Max_cycle;Signal;HPM_P1;HPM_P2
2023/07/27 00:01:20;;;;;;;37.83;34.38;;;;;;;13.29;75.59;97876.34;5066468;28;20640;-88
2023/07/27 00:03:47;;;;;;;38.70;35.10;;;;;;;13.29;75.41;97883.69;5070469;28;20293;-88
2023/07/27 00:06:13;;;;;;;31.40;28.60;;;;;;;13.43;74.82;97875.16;5068976;28;20476;-88
2023/07/27 00:08:40;;;;;;;29.50;26.80;;;;;;;13.31;75.34;97876.97;5073778;28;20516;-88
2023/07/27 00:11:09;;;;;;;27.90;25.30;;;;;;;13.36;75.60;97879.00;5068593;28;20497;-88
2023/07/27 00:13:36;;;;;;;20.60;18.70;;;;;;;13.24;75.53;97870.75;5074469;28;20225;-88
2023/07/27 00:16:03;;;;;;;21.97;19.83;;;;;;;13.39;75.49;97879.38;5064914;28;20519;-88
2023/07/27 00:18:31;;;;;;;16.47;14.97;;;;;;;13.26;75.77;97871.38;5069187;28;20454;-88
2023/07/27 00:20:58;;;;;;;16.37;14.10;;;;;;;13.23;75.86;97863.66;5068472;28;21043;-87
2023/07/27 00:23:24;;;;;;;13.03;11.67;;;;;;;13.36;75.76;97868.94;5065906;28;20579;-87
2023/07/27 00:25:51;;;;;;;11.70;10.60;;;;;;;13.17;76.24;97861.81;5065944;28;20491;-87
2023/07/27 00:28:18;;;;;;;10.80;9.60;;;;;;;13.14;76.75;97859.50;5069229;28;20975;-87
2023/07/27 00:30:45;;;;;;;10.07;9.17;;;;;;;13.38;75.68;97845.09;5064904;28;20461;-88
2023/07/27 00:33:11;;;;;;;8.10;7.30;;;;;;;13.36;75.68;97857.25;5064146;28;20510;-88
2023/07/27 00:35:39;;;;;;;8.17;7.10;;;;;;;13.33;75.85;97850.38;5067442;28;20532;-89
2023/07/27 00:38:06;;;;;;;8.07;6.63;;;;;;;13.39;75.53;97846.75;5072425;28;20519;-88
2023/07/27 00:40:33;;;;;;;6.47;5.87;;;;;;;13.42;75.47;97846.31;5066679;28;20200;-88
2023/07/27 00:43:00;;;;;;;6.43;5.80;;;;;;;13.44;75.44;97855.06;5067443;28;20492;-88
2023/07/27 00:45:28;;;;;;;6.60;5.97;;;;;;;13.37;75.79;97850.75;5065473;28;20474;-88
2023/07/27 00:47:55;;;;;;;7.30;5.83;;;;;;;13.36;75.91;97852.63;5070264;28;20501;-89
2023/07/27 00:50:22;;;;;;;7.30;5.47;;;;;;;13.43;75.67;97844.41;5065095;28;20452;-89
2023/07/27 00:52:50;;;;;;;5.60;5.10;;;;;;;13.35;76.18;97842.00;5067722;28;20456;-88
2023/07/27 00:55:17;;;;;;;5.33;4.93;;;;;;;13.18;76.53;97841.75;5065880;28;20554;-88
2023/07/27 00:57:44;;;;;;;5.97;5.37;;;;;;;13.23;76.01;97832.94;5066483;28;20464;-88
2023/07/27 01:00:12;;;;;;;7.63;4.93;;;;;;;13.24;76.43;97834.59;5068368;28;20899;-88
2023/07/27 01:02:39;;;;;;;7.40;5.10;;;;;;;13.08;77.17;97828.63;5063675;28;21475;-89
2023/07/27 01:05:06;;;;;;;5.43;4.77;;;;;;;13.17;76.15;97833.81;5064882;28;20482;-88
2023/07/27 01:07:33;;;;;;;6.60;4.87;;;;;;;13.18;76.35;97830.88;5066490;28;20462;-88
2023/07/27 01:10:01;;;;;;;5.93;5.10;;;;;;;13.14;75.86;97826.91;5067586;28;20460;-88
2023/07/27 01:12:33;;;;;;;6.27;5.00;;;;;;;13.05;76.68;97822.81;5066283;28;20447;-88
2023/07/27 01:15:04;;;;;;;5.40;4.63;;;;;;;13.12;76.07;97818.16;5071358;28;20510;-89
2023/07/27 01:17:35;;;;;;;5.47;5.00;;;;;;;13.12;76.33;97818.97;5077508;28;20518;-89
2023/07/27 01:20:12;;;;;;;6.73;5.47;;;;;;;13.16;76.36;97808.53;5068476;28;20470;-89
2023/07/27 01:23:08;;;;;;;6.17;4.80;;;;;;;13.16;76.18;97803.09;5066255;28;20456;-88
2023/07/27 01:25:57;;;;;;;5.13;4.73;;;;;;;13.04;76.83;97807.56;5068422;28;20616;-88
2023/07/27 01:28:39;;;;;;;6.47;5.50;;;;;;;13.10;76.72;97803.94;5070427;28;20439;-88
2023/07/27 01:31:10;;;;;;;5.00;4.60;;;;;;;13.06;76.35;97792.69;5072382;28;20240;-88
2023/07/27 01:33:40;;;;;;;5.10;4.50;;;;;;;13.18;76.23;97792.84;5070031;28;20451;-89
2023/07/27 01:36:09;;;;;;;6.30;4.50;;;;;;;13.04;76.45;97788.53;5067016;28;20566;-88
2023/07/27 01:38:37;;;;;;;5.03;4.63;;;;;;;12.96;76.92;97783.41;5070433;28;20196;-88
2023/07/27 01:41:05;;;;;;;4.90;4.50;;;;;;;12.87;77.25;97779.31;5065282;28;20575;-88
2023/07/27 01:43:32;;;;;;;5.00;4.50;;;;;;;12.79;77.34;97781.25;5067431;28;20482;-88
2023/07/27 01:45:59;;;;;;;4.93;4.50;;;;;;;12.83;77.07;97769.94;5068656;28;20223;-88
2023/07/27 01:48:27;;;;;;;5.22;4.72;;;;;;;12.94;76.67;97780.94;5072130;28;20283;-88
2023/07/27 01:50:55;;;;;;;6.10;5.22;;;;;;;12.73;77.40;97776.72;5069906;28;20571;-88
2023/07/27 01:53:22;;;;;;;5.13;4.63;;;;;;;12.84;77.11;97779.75;5069190;28;20661;-87
2023/07/27 01:55:49;;;;;;;6.38;4.82;;;;;;;12.91;76.88;97783.25;5065678;28;20541;-88
2023/07/27 01:58:17;;;;;;;6.45;4.28;;;;;;;13.04;76.54;97774.97;5064032;28;20311;-88
2023/07/27 02:00:44;;;;;;;5.53;5.03;;;;;;;12.85;77.28;97776.81;5064571;28;20255;-88
2023/07/27 02:03:11;;;;;;;4.90;4.50;;;;;;;12.79;77.11;97770.41;5069848;28;20224;-88
2023/07/27 02:05:40;;;;;;;5.80;5.30;;;;;;;12.83;77.25;97767.22;5064874;28;20539;-89
2023/07/27 02:08:06;;;;;;;4.90;4.35;;;;;;;12.86;77.09;97772.22;5067486;28;20249;-88
2023/07/27 02:10:33;;;;;;;4.72;4.32;;;;;;;12.89;76.84;97763.63;5068975;28;20205;-88
2023/07/27 02:13:05;;;;;;;7.78;4.72;;;;;;;12.74;77.71;97758.53;5068543;28;20300;-88
2023/07/27 02:15:34;;;;;;;6.78;4.82;;;;;;;12.78;77.45;97757.03;5074736;28;20224;-87
2023/07/27 02:18:03;;;;;;;4.40;4.00;;;;;;;12.62;77.76;97753.03;5077821;28;20231;-88
2023/07/27 02:20:32;;;;;;;4.90;4.13;;;;;;;12.73;77.80;97754.97;5078440;28;20212;-88
2023/07/27 02:23:01;;;;;;;4.57;4.10;;;;;;;12.61;78.04;97751.34;5071232;28;20204;-88
2023/07/27 02:25:28;;;;;;;4.90;4.50;;;;;;;12.65;78.05;97749.84;5068008;28;21053;-89
2023/07/27 02:27:55;;;;;;;5.15;4.68;;;;;;;12.67;77.73;97747.72;5069805;28;20204;-88
2023/07/27 02:30:22;;;;;;;6.15;4.43;;;;;;;12.66;77.59;97751.53;5068227;28;20192;-88
2023/07/27 02:32:49;;;;;;;5.38;4.72;;;;;;;12.66;77.95;97750.69;5071892;28;20203;-88
2023/07/27 02:35:16;;;;;;;5.03;4.63;;;;;;;12.67;77.74;97745.00;5069732;28;20237;-88
2023/07/27 02:37:43;;;;;;;8.68;5.35;;;;;;;12.69;77.57;97737.47;5068694;28;20196;-88
2023/07/27 02:40:11;;;;;;;5.35;4.60;;;;;;;12.69;77.56;97731.22;5070303;28;20192;-87
2023/07/27 02:42:38;;;;;;;5.32;4.70;;;;;;;12.48;78.37;97729.75;5070270;28;20197;-88
2023/07/27 02:45:05;;;;;;;5.18;4.68;;;;;;;12.65;78.12;97730.03;5069280;28;20228;-88
2023/07/27 02:47:33;;;;;;;4.45;4.15;;;;;;;12.53;78.55;97721.75;5078109;28;20471;-88
2023/07/27 02:49:59;;;;;;;4.78;4.28;;;;;;;12.40;79.04;97724.56;5076625;28;20196;-88
2023/07/27 02:52:27;;;;;;;4.90;4.50;;;;;;;12.39;79.28;97725.63;5070537;28;20232;-87
2023/07/27 02:54:54;;;;;;;5.30;4.80;;;;;;;12.53;78.82;97726.38;5067563;28;20220;-90
2023/07/27 02:57:23;;;;;;;6.78;4.05;;;;;;;12.56;78.45;97724.03;5060391;28;20299;-88
2023/07/27 02:59:49;;;;;;;4.25;3.90;;;;;;;12.57;78.72;97716.72;5066577;28;20227;-88
2023/07/27 03:02:17;;;;;;;4.95;4.45;;;;;;;12.70;78.28;97727.44;5067883;28;20259;-89
2023/07/27 03:04:45;;;;;;;4.40;4.00;;;;;;;12.76;78.13;97729.28;5066881;28;20232;-88
2023/07/27 03:07:12;;;;;;;5.35;4.10;;;;;;;12.77;77.88;97718.19;5066773;28;20193;-89
2023/07/27 03:09:38;;;;;;;6.00;4.10;;;;;;;12.69;78.24;97721.19;5070017;28;20556;-88
2023/07/27 03:12:07;;;;;;;4.25;3.75;;;;;;;12.74;77.70;97713.19;5068274;28;20538;-88
2023/07/27 03:14:35;;;;;;;5.22;4.50;;;;;;;12.83;77.58;97715.63;5068013;28;20308;-88
2023/07/27 03:17:02;;;;;;;5.30;4.03;;;;;;;12.72;77.88;97719.91;5066662;28;20261;-88
2023/07/27 03:19:28;;;;;;;4.35;3.80;;;;;;;12.88;77.50;97718.50;5060069;28;20581;-88
2023/07/27 03:21:55;;;;;;;4.20;3.90;;;;;;;12.87;77.22;97717.69;5068116;28;20253;-88
2023/07/27 03:24:22;;;;;;;4.40;4.00;;;;;;;12.89;77.21;97717.47;5065818;28;20596;-89
2023/07/27 03:26:49;;;;;;;4.47;4.07;;;;;;;12.89;77.00;97721.00;5066098;28;20545;-88
2023/07/27 03:29:15;;;;;;;3.80;3.50;;;;;;;12.88;77.42;97723.94;5068905;28;20192;-89
2023/07/27 03:31:44;;;;;;;4.15;3.85;;;;;;;13.07;76.93;97717.44;5061360;28;20200;-88
2023/07/27 03:34:11;;;;;;;3.58;3.28;;;;;;;12.94;77.26;97721.16;5068020;28;20210;-88
2023/07/27 03:36:37;;;;;;;4.18;3.88;;;;;;;12.92;77.51;97717.84;5068137;28;20245;-88
2023/07/27 03:39:05;;;;;;;4.20;3.80;;;;;;;12.96;77.51;97715.50;5066704;28;20196;-88
2023/07/27 03:41:31;;;;;;;4.65;4.10;;;;;;;12.92;77.49;97714.28;5067374;28;20197;-88
2023/07/27 03:43:58;;;;;;;4.43;4.10;;;;;;;13.03;77.37;97713.53;5064455;28;20231;-88
2023/07/27 03:46:25;;;;;;;7.57;3.95;;;;;;;13.04;77.12;97707.88;5066108;28;20228;-88
2023/07/27 03:48:54;;;;;;;4.97;4.57;;;;;;;13.06;76.81;97704.94;5064253;28;20548;-89
2023/07/27 03:51:21;;;;;;;4.28;3.53;;;;;;;13.08;76.49;97706.38;5063498;28;20322;-88
2023/07/27 03:53:48;;;;;;;4.30;3.88;;;;;;;13.06;76.58;97699.50;5069559;28;20277;-88
2023/07/27 03:56:14;;;;;;;4.30;3.92;;;;;;;12.98;77.01;97699.81;5066244;28;20228;-88
2023/07/27 03:58:41;;;;;;;3.90;3.60;;;;;;;13.09;76.00;97694.44;5068849;28;20212;-88
2023/07/27 04:01:08;;;;;;;3.77;3.47;;;;;;;13.13;76.41;97690.22;5060741;28;20531;-87
2023/07/27 04:03:35;;;;;;;5.85;3.60;;;;;;;13.09;76.69;97694.44;5063043;28;20850;-88
2023/07/27 04:06:04;;;;;;;4.77;3.57;;;;;;;13.04;76.52;97691.56;5063404;28;20221;-89
2023/07/27 04:08:30;;;;;;;3.83;3.43;;;;;;;13.09;76.61;97677.31;5068183;28;20555;-88
2023/07/27 04:10:57;;;;;;;3.85;3.55;;;;;;;13.13;76.39;97681.22;5066117;28;20808;-90
2023/07/27 04:13:24;;;;;;;5.47;3.63;;;;;;;13.28;75.68;97681.72;5068591;28;20232;-88
2023/07/27 04:15:51;;;;;;;4.00;3.70;;;;;;;13.26;75.91;97683.00;5067540;28;20505;-88
2023/07/27 04:18:17;;;;;;;4.13;3.60;;;;;;;13.21;75.77;97670.09;5085550;28;20223;-89
2023/07/27 04:20:44;;;;;;;3.65;3.15;;;;;;;13.19;76.21;97661.34;5085804;28;20220;-89
2023/07/27 04:23:14;;;;;;;3.50;3.20;;;;;;;13.30;75.76;97681.50;5078077;28;20196;-89
2023/07/27 04:25:40;;;;;;;3.13;2.80;;;;;;;13.28;75.38;97673.56;5066506;28;20731;-88
2023/07/27 04:28:07;;;;;;;3.43;3.13;;;;;;;13.26;75.31;97669.41;5067969;28;20543;-88
2023/07/27 04:30:34;;;;;;;3.30;3.00;;;;;;;13.26;75.55;97672.97;5065637;28;20470;-89
2023/07/27 04:33:00;;;;;;;3.90;3.42;;;;;;;13.21;75.56;97669.25;5068679;28;20295;-89
2023/07/27 04:35:27;;;;;;;3.40;3.10;;;;;;;13.27;75.22;97671.91;5070631;28;20220;-88
2023/07/27 04:37:54;;;;;;;4.23;3.67;;;;;;;13.22;75.94;97666.31;5066173;28;20513;-87
2023/07/27 04:40:22;;;;;;;3.35;3.08;;;;;;;13.37;75.08;97666.75;5063470;28;20566;-89
2023/07/27 04:42:49;;;;;;;3.40;3.10;;;;;;;13.39;75.00;97670.06;5067847;28;20303;-88
2023/07/27 04:45:16;;;;;;;3.03;2.83;;;;;;;13.32;75.07;97669.31;5068012;28;20322;-89
2023/07/27 04:47:43;;;;;;;3.60;3.30;;;;;;;13.45;75.07;97661.00;5064434;28;20197;-89
2023/07/27 04:50:10;;;;;;;3.23;2.93;;;;;;;13.52;74.32;97668.22;5067220;28;20646;-89
2023/07/27 04:52:38;;;;;;;3.97;3.40;;;;;;;13.62;74.18;97661.19;5062620;28;20961;-89
2023/07/27 04:55:05;;;;;;;4.07;3.67;;;;;;;13.71;73.29;97658.94;5061703;28;20496;-89
2023/07/27 04:57:33;;;;;;;4.37;3.77;;;;;;;13.53;74.33;97667.19;5059719;28;20561;-89
2023/07/27 05:00:00;;;;;;;3.70;2.80;;;;;;;13.60;74.56;97657.03;5066155;28;20461;-89
2023/07/27 05:02:27;;;;;;;2.70;2.50;;;;;;;13.64;74.24;97655.53;5074720;28;20462;-88
2023/07/27 05:04:54;;;;;;;3.80;3.13;;;;;;;13.87;73.73;97655.59;5064024;28;20491;-87
2023/07/27 05:07:21;;;;;;;4.60;3.53;;;;;;;13.82;73.42;97660.88;5069814;28;20291;-85
2023/07/27 05:09:48;;;;;;;3.83;3.43;;;;;;;13.71;74.29;97661.66;5077995;28;20516;-83
2023/07/27 05:12:15;;;;;;;6.00;3.67;;;;;;;13.97;72.98;97661.28;5081780;28;20456;-87
2023/07/27 05:14:43;;;;;;;3.57;3.27;;;;;;;14.11;72.55;97659.19;5071839;28;20472;-78
2023/07/27 05:17:11;;;;;;;3.43;3.20;;;;;;;14.06;73.37;97661.78;5069372;28;20516;-87
2023/07/27 05:19:38;;;;;;;4.73;3.63;;;;;;;14.19;72.54;97656.13;5066878;28;20466;-78
2023/07/27 05:22:05;;;;;;;3.50;3.10;;;;;;;14.27;72.36;97663.13;5076322;28;20468;-86
2023/07/27 05:24:32;;;;;;;5.13;3.37;;;;;;;14.34;72.02;97656.47;5076576;28;20476;-86
2023/07/27 05:26:59;;;;;;;3.93;3.53;;;;;;;14.42;71.81;97656.16;5070230;28;20450;-86
2023/07/27 05:29:26;;;;;;;3.30;3.00;;;;;;;14.23;72.27;97657.31;5073224;28;20461;-87
2023/07/27 05:31:54;;;;;;;3.47;3.27;;;;;;;14.44;71.21;97653.22;5062009;28;20460;-87
2023/07/27 05:34:21;;;;;;;4.03;3.60;;;;;;;14.40;71.97;97652.00;5070655;28;20963;-85
2023/07/27 05:36:48;;;;;;;3.70;3.40;;;;;;;14.52;71.64;97650.16;5071175;28;20532;-83
2023/07/27 05:39:14;;;;;;;4.90;3.53;;;;;;;14.66;71.59;97646.09;5068021;28;20622;-85
2023/07/27 05:41:41;;;;;;;3.70;3.40;;;;;;;14.70;70.92;97647.28;5071775;28;20476;-85
2023/07/27 05:44:08;;;;;;;4.30;3.90;;;;;;;14.63;71.40;97641.13;5069763;28;20513;-85
2023/07/27 05:46:35;;;;;;;3.80;3.50;;;;;;;14.60;72.03;97640.78;5071816;28;20550;-84
2023/07/27 05:49:04;;;;;;;3.70;3.40;;;;;;;14.61;72.17;97643.28;5073727;28;20527;-84
2023/07/27 05:51:31;;;;;;;4.40;4.00;;;;;;;14.81;70.85;97642.06;5074512;28;20458;-84
2023/07/27 05:53:58;;;;;;;4.00;3.60;;;;;;;14.85;71.23;97640.53;5069399;28;21012;-85
2023/07/27 05:56:24;;;;;;;3.63;3.33;;;;;;;14.87;70.76;97641.94;5071240;28;20475;-84
2023/07/27 05:58:51;;;;;;;3.67;3.20;;;;;;;15.11;70.04;97646.28;5071886;28;20558;-85
2023/07/27 06:01:18;;;;;;;3.27;3.07;;;;;;;15.17;70.07;97644.47;5069894;28;20477;-83
2023/07/27 06:03:47;;;;;;;3.53;3.20;;;;;;;15.47;69.55;97647.00;5070550;28;20461;-85
2023/07/27 06:06:15;;;;;;;3.40;2.90;;;;;;;15.50;68.74;97649.25;5062131;28;20486;-82
2023/07/27 06:08:42;;;;;;;2.97;2.77;;;;;;;15.56;68.40;97647.44;5069856;28;20623;-81
2023/07/27 06:11:09;;;;;;;3.37;3.07;;;;;;;15.90;67.19;97641.03;5068908;28;20486;-81
2023/07/27 06:13:37;;;;;;;3.27;2.97;;;;;;;15.74;67.54;97647.25;5070152;28;20507;-81
2023/07/27 06:16:04;;;;;;;4.40;2.70;;;;;;;15.98;66.78;97651.50;5070717;28;21037;-81
2023/07/27 06:18:31;;;;;;;3.17;2.87;;;;;;;16.37;65.64;97659.81;5071250;28;20455;-82
2023/07/27 06:20:59;;;;;;;4.07;2.83;;;;;;;16.27;65.17;97656.91;5063875;28;20965;-82
2023/07/27 06:23:28;;;;;;;4.80;3.20;;;;;;;16.65;64.28;97657.00;5066355;28;20450;-82
2023/07/27 06:25:54;;;;;;;3.30;3.10;;;;;;;16.68;64.24;97664.72;5066133;28;20486;-82
2023/07/27 06:28:21;;;;;;;4.80;2.90;;;;;;;16.55;64.64;97653.28;5062720;28;20466;-80
2023/07/27 06:30:48;;;;;;;3.20;2.90;;;;;;;16.85;63.24;97659.22;5069014;28;20513;-80
2023/07/27 06:33:15;;;;;;;3.17;2.97;;;;;;;17.03;63.47;97649.91;5066284;28;20462;-82
2023/07/27 06:35:42;;;;;;;3.63;2.90;;;;;;;16.99;63.42;97654.22;5064688;28;20517;-83
2023/07/27 06:38:09;;;;;;;2.93;2.70;;;;;;;17.03;63.96;97649.91;5061201;28;20504;-84
2023/07/27 06:40:37;;;;;;;2.83;2.63;;;;;;;17.92;62.19;97639.47;5058487;28;20466;-74
2023/07/27 06:43:04;;;;;;;3.47;2.70;;;;;;;18.06;60.39;97634.41;5059983;28;20485;-85
2023/07/27 06:45:31;;;;;;;3.23;2.90;;;;;;;17.82;61.40;97635.81;5059035;28;20645;-86
2023/07/27 06:47:58;;;;;;;3.10;2.80;;;;;;;18.17;60.74;97638.06;5060236;28;20554;-83
2023/07/27 06:50:26;;;;;;;2.50;2.30;;;;;;;17.91;60.98;97635.06;5058869;28;20455;-82
2023/07/27 06:52:52;;;;;;;2.87;2.67;;;;;;;17.98;60.56;97632.94;5064230;28;20465;-82
2023/07/27 06:55:19;;;;;;;2.57;2.37;;;;;;;18.02;60.77;97631.34;5065209;28;20498;-83
2023/07/27 06:57:47;;;;;;;3.90;2.80;;;;;;;18.18;59.71;97626.03;5054000;28;20559;-84
2023/07/27 07:00:15;;;;;;;3.13;2.73;;;;;;;18.21;60.04;97622.72;5061187;28;20537;-83
2023/07/27 07:02:41;;;;;;;3.17;2.60;;;;;;;17.88;61.42;97632.84;5056919;28;20459;-84
2023/07/27 07:05:09;;;;;;;2.60;2.40;;;;;;;18.34;60.19;97638.75;5061039;28;21008;-86
2023/07/27 07:07:36;;;;;;;4.23;2.30;;;;;;;18.16;60.10;97619.97;5058969;28;20810;-85
2023/07/27 07:10:03;;;;;;;2.80;2.43;;;;;;;17.92;60.42;97622.19;5064148;28;20462;-81
2023/07/27 07:12:32;;;;;;;2.73;2.10;;;;;;;18.00;60.51;97622.56;5056854;28;20966;-83
2023/07/27 07:15:00;;;;;;;2.60;2.40;;;;;;;17.98;60.07;97623.91;5062441;28;20477;-83
2023/07/27 07:17:26;;;;;;;3.70;2.43;;;;;;;17.96;60.39;97621.44;5060668;28;20458;-84
2023/07/27 07:19:54;;;;;;;2.60;2.40;;;;;;;18.23;59.72;97607.69;5076442;28;20474;-83
2023/07/27 07:22:23;;;;;;;2.60;2.40;;;;;;;18.07;60.11;97612.22;5070504;28;20462;-83
2023/07/27 07:24:49;;;;;;;2.90;2.40;;;;;;;18.12;59.43;97620.50;5063830;28;21020;-83
2023/07/27 07:27:16;;;;;;;3.40;2.63;;;;;;;18.18;59.33;97612.31;5064489;28;20529;-83
2023/07/27 07:29:43;;;;;;;3.23;2.53;;;;;;;17.98;59.71;97608.31;5062183;28;20454;-83
2023/07/27 07:32:12;;;;;;;3.70;2.27;;;;;;;18.27;59.38;97608.00;5062064;28;20490;-82
2023/07/27 07:34:39;;;;;;;3.73;2.80;;;;;;;18.33;59.08;97593.25;5067271;28;20545;-83
2023/07/27 07:37:06;;;;;;;2.27;2.10;;;;;;;17.88;60.41;97608.19;5065279;28;20862;-84
2023/07/27 07:39:38;;;;;;;2.47;2.27;;;;;;;18.18;59.82;97604.94;5059665;28;21298;-82
2023/07/27 07:42:05;;;;;;;2.93;2.30;;;;;;;18.32;58.77;97591.59;5066241;28;20450;-84
2023/07/27 07:44:32;;;;;;;3.77;2.47;;;;;;;18.35;58.82;97591.06;5080065;28;20497;-87
2023/07/27 07:46:59;;;;;;;2.33;2.13;;;;;;;17.99;59.38;97593.53;5080621;28;20447;-87
2023/07/27 07:49:28;;;;;;;2.83;2.50;;;;;;;18.22;59.83;97586.03;5064496;28;20490;-86
2023/07/27 07:52:02;;;;;;;2.67;2.47;;;;;;;18.22;59.35;97597.00;5068654;28;20456;-84
2023/07/27 07:54:29;;;;;;;2.60;2.10;;;;;;;18.18;60.56;97593.16;5068319;28;20470;-86
2023/07/27 07:56:56;;;;;;;4.47;2.60;;;;;;;18.01;61.58;97596.84;5064967;28;20517;-86
2023/07/27 07:59:23;;;;;;;3.10;2.80;;;;;;;17.81;63.70;97595.84;5064407;28;20573;-86
2023/07/27 08:01:52;;;;;;;2.53;2.27;;;;;;;17.50;64.60;97594.66;5068932;28;20491;-86
2023/07/27 08:04:19;;;;;;;3.07;2.40;;;;;;;17.40;66.79;97598.13;5068992;28;21006;-86
2023/07/27 08:06:47;;;;;;;3.63;2.93;;;;;;;17.30;66.56;97589.78;5067095;28;20965;-84
2023/07/27 08:09:14;;;;;;;2.53;2.33;;;;;;;17.04;67.56;97586.75;5065450;28;20973;-82
2023/07/27 08:11:41;;;;;;;2.77;2.27;;;;;;;16.89;68.24;97591.22;5064651;28;20454;-83
2023/07/27 08:14:09;;;;;;;2.57;2.37;;;;;;;16.94;68.82;97586.63;5064686;28;20485;-84
2023/07/27 08:16:37;;;;;;;2.87;2.67;;;;;;;16.90;69.00;97601.03;5068201;28;20519;-84
2023/07/27 08:19:04;;;;;;;3.10;2.63;;;;;;;16.75;69.09;97591.56;5065499;28;20558;-83
2023/07/27 08:21:30;;;;;;;4.70;2.83;;;;;;;16.70;69.64;97586.03;5067994;28;20507;-84
2023/07/27 08:23:59;;;;;;;3.53;2.73;;;;;;;16.81;70.88;97581.53;5062582;28;20557;-84
2023/07/27 08:26:26;;;;;;;4.07;2.80;;;;;;;16.77;70.78;97580.38;5065203;28;20528;-84
2023/07/27 08:28:52;;;;;;;3.47;2.43;;;;;;;16.90;68.97;97581.91;5067930;28;20450;-83
2023/07/27 08:31:19;;;;;;;3.30;3.00;;;;;;;16.99;69.18;97594.06;5064234;28;20474;-83
2023/07/27 08:33:46;;;;;;;2.80;2.60;;;;;;;16.87;68.41;97591.47;5061091;28;20535;-84
2023/07/27 08:36:13;;;;;;;3.33;2.90;;;;;;;16.68;71.17;97587.38;5069687;28;20449;-84
2023/07/27 08:38:40;;;;;;;3.00;2.80;;;;;;;16.70;71.94;97564.16;5071332;28;20553;-83
2023/07/27 08:41:08;;;;;;;3.10;2.80;;;;;;;16.63;72.40;97563.50;5071533;28;20475;-84
2023/07/27 08:43:35;;;;;;;2.87;2.67;;;;;;;16.62;71.62;97559.09;5066008;28;20478;-84
2023/07/27 08:46:03;;;;;;;4.20;2.97;;;;;;;16.91;70.59;97558.97;5068356;28;20543;-82
2023/07/27 08:48:29;;;;;;;5.20;2.77;;;;;;;16.92;71.66;97555.13;5070649;28;20453;-84
2023/07/27 08:50:57;;;;;;;3.30;3.00;;;;;;;17.08;71.57;97548.78;5081378;28;20507;-84
2023/07/27 08:53:25;;;;;;;2.63;2.40;;;;;;;16.86;70.56;97557.00;5083465;28;20832;-85
2023/07/27 08:55:52;;;;;;;2.90;2.70;;;;;;;16.94;70.81;97555.72;5083012;28;20864;-81
2023/07/27 08:58:21;;;;;;;3.10;2.90;;;;;;;17.09;69.42;97539.50;5081256;28;20465;-83
2023/07/27 09:00:48;;;;;;;3.33;2.17;;;;;;;17.07;70.15;97542.50;5066175;28;20567;-82
2023/07/27 09:03:14;;;;;;;2.70;2.47;;;;;;;17.14;68.24;97545.03;5070910;28;20454;-82
2023/07/27 09:05:42;;;;;;;3.00;2.80;;;;;;;17.15;68.36;97526.72;5071329;28;20496;-82
2023/07/27 09:08:10;;;;;;;4.07;2.37;;;;;;;16.99;68.77;97531.19;5071359;28;20450;-82
2023/07/27 09:10:37;;;;;;;5.50;2.70;;;;;;;16.98;68.07;97532.25;5071980;28;20478;-83
2023/07/27 09:13:04;;;;;;;3.00;2.57;;;;;;;17.10;69.09;97535.69;5065500;28;20467;-80
2023/07/27 09:15:33;;;;;;;3.17;2.87;;;;;;;17.09;69.61;97536.78;5063237;28;20469;-79
2023/07/27 09:18:01;;;;;;;3.17;2.87;;;;;;;17.29;68.12;97533.41;5065076;28;20447;-76
2023/07/27 09:20:28;;;;;;;3.80;2.80;;;;;;;17.03;69.51;97546.00;5067682;28;20461;-79
2023/07/27 09:22:56;;;;;;;3.37;2.90;;;;;;;16.96;70.10;97556.28;5070093;28;21068;-81
2023/07/27 09:25:24;;;;;;;5.57;2.80;;;;;;;16.73;70.91;97552.75;5071519;28;20492;-80
2023/07/27 09:27:53;;;;;;;2.97;2.43;;;;;;;16.52;71.23;97549.97;5070853;28;20541;-81
2023/07/27 09:30:20;;;;;;;3.33;3.03;;;;;;;16.59;72.96;97556.03;5070281;28;20537;-80
2023/07/27 09:32:49;;;;;;;3.07;2.87;;;;;;;16.49;73.61;97562.22;5063983;28;20519;-82
2023/07/27 09:35:17;;;;;;;2.60;2.40;;;;;;;16.49;70.62;97556.75;5069869;28;20985;-78
2023/07/27 09:37:45;;;;;;;4.53;2.87;;;;;;;16.54;72.87;97559.56;5070182;28;20462;-78
2023/07/27 09:40:14;;;;;;;3.27;2.70;;;;;;;16.48;73.39;97555.09;5070584;28;20462;-79
2023/07/27 09:42:44;;;;;;;3.10;2.80;;;;;;;16.43;72.68;97555.03;5084900;28;20484;-78
2023/07/27 09:45:12;;;;;;;3.97;3.20;;;;;;;16.47;73.41;97553.44;5084577;28;20505;-76
2023/07/27 09:47:39;;;;;;;5.00;3.10;;;;;;;16.63;72.23;97551.72;5067678;28;20928;-80
2023/07/27 09:50:08;;;;;;;3.20;2.90;;;;;;;16.77;71.81;97551.16;5069538;28;20461;-77
2023/07/27 09:52:36;;;;;;;3.17;2.90;;;;;;;16.93;72.22;97545.84;5070818;28;20454;-80
2023/07/27 09:55:03;;;;;;;4.73;3.13;;;;;;;17.02;72.16;97552.53;5068572;28;20482;-81
2023/07/27 09:57:30;;;;;;;3.27;2.80;;;;;;;17.09;71.62;97539.50;5069817;28;20985;-81
2023/07/27 09:59:57;;;;;;;3.20;2.80;;;;;;;17.28;71.88;97527.13;5070879;28;20473;-81
2023/07/27 10:02:24;;;;;;;3.03;2.77;;;;;;;17.55;71.01;97524.38;5071900;28;20473;-81
2023/07/27 10:04:50;;;;;;;3.40;2.57;;;;;;;17.59;69.60;97524.69;5071481;28;20555;-80
2023/07/27 10:07:19;;;;;;;2.70;2.33;;;;;;;17.43;68.81;97519.09;5070543;28;20489;-81
2023/07/27 10:09:46;;;;;;;3.40;2.80;;;;;;;17.70;70.02;97510.88;5072345;28;20446;-81
2023/07/27 10:12:27;;;;;;;3.50;2.53;;;;;;;17.54;68.86;97519.19;5072507;28;20536;-81
2023/07/27 10:15:21;;;;;;;4.50;2.73;;;;;;;17.45;68.17;97516.09;5076620;28;20497;-81
2023/07/27 10:17:50;;;;;;;2.70;2.50;;;;;;;17.47;67.23;97513.94;5085233;28;20461;-81
2023/07/27 10:20:21;;;;;;;3.03;2.73;;;;;;;17.51;68.14;97511.50;5086743;28;20450;-80
2023/07/27 10:22:52;;;;;;;3.07;2.77;;;;;;;17.63;69.14;97512.13;5088158;28;20485;-81
2023/07/27 10:25:20;;;;;;;3.57;2.50;;;;;;;17.83;69.16;97517.84;5078500;28;20523;-81
2023/07/27 10:27:57;;;;;;;3.07;2.43;;;;;;;17.79;69.06;97524.91;5074172;28;20484;-81
2023/07/27 10:30:24;;;;;;;2.93;2.70;;;;;;;17.55;69.35;97515.34;5071581;28;20465;-81
2023/07/27 10:33:15;;;;;;;3.77;2.20;;;;;;;17.78;66.09;97506.84;5070147;28;20513;-81
2023/07/27 10:36:01;;;;;;;2.47;2.27;;;;;;;17.96;65.39;97505.59;5071609;28;20453;-81
2023/07/27 10:38:32;;;;;;;4.00;2.87;;;;;;;18.03;65.22;97512.50;5070704;28;20454;-81
2023/07/27 10:41:12;;;;;;;2.97;2.20;;;;;;;18.40;66.14;97506.16;5071195;28;20446;-81
2023/07/27 10:43:38;;;;;;;2.90;2.40;;;;;;;18.16;63.67;97494.81;5070533;28;20473;-81
2023/07/27 10:46:24;;;;;;;3.43;2.80;;;;;;;18.56;63.68;97493.34;5068789;28;20997;-81
2023/07/27 10:48:58;;;;;;;2.77;2.57;;;;;;;18.67;64.19;97490.44;5070636;28;20437;-81
2023/07/27 10:51:25;;;;;;;2.60;2.40;;;;;;;18.48;64.68;97486.50;5070748;28;20489;-81
2023/07/27 10:53:53;;;;;;;3.00;2.50;;;;;;;18.43;65.66;97483.72;5069294;28;20478;-81
2023/07/27 10:56:21;;;;;;;3.20;2.40;;;;;;;18.59;63.50;97471.72;5069981;28;20459;-81
2023/07/27 10:58:49;;;;;;;3.10;2.67;;;;;;;18.89;62.31;97470.22;5067739;28;20533;-81
2023/07/27 11:01:15;;;;;;;2.63;2.40;;;;;;;18.71;63.22;97469.63;5069552;28;20453;-82
2023/07/27 11:03:42;;;;;;;3.00;2.17;;;;;;;19.09;62.66;97467.56;5069903;28;20470;-81
2023/07/27 11:06:10;;;;;;;3.00;2.50;;;;;;;19.06;62.71;97470.84;5070569;28;20594;-81
2023/07/27 11:08:37;;;;;;;3.33;2.40;;;;;;;19.39;61.84;97464.84;5070525;28;20859;-82
2023/07/27 11:11:15;;;;;;;2.60;2.40;;;;;;;19.59;60.48;97465.97;5068687;28;20446;-81
2023/07/27 11:13:42;;;;;;;2.60;2.33;;;;;;;19.49;60.37;97468.72;5069606;28;20473;-81
2023/07/27 11:16:09;;;;;;;2.60;2.40;;;;;;;19.32;60.77;97456.06;5070221;28;20470;-82
2023/07/27 11:18:36;;;;;;;2.63;2.40;;;;;;;19.38;60.40;97452.22;5070348;28;20450;-82
2023/07/27 11:21:03;;;;;;;3.30;2.50;;;;;;;19.53;59.51;97447.84;5069966;28;20537;-81
2023/07/27 11:23:30;;;;;;;2.83;2.43;;;;;;;19.68;58.87;97445.13;5070233;28;20472;-82
2023/07/27 11:25:57;;;;;;;3.57;2.70;;;;;;;19.76;58.21;97444.59;5069958;28;20841;-81
2023/07/27 11:28:26;;;;;;;1.90;1.80;;;;;;;19.88;58.82;97439.59;5064970;28;20867;-81
2023/07/27 11:30:52;;;;;;;2.43;2.23;;;;;;;19.78;58.80;97445.97;5070231;28;20516;-82
2023/07/27 11:33:25;;;;;;;2.57;2.37;;;;;;;19.88;57.56;97438.78;5067547;28;20471;-81
2023/07/27 11:35:52;;;;;;;3.30;2.13;;;;;;;19.79;57.80;97433.03;5069530;28;20509;-81